PAO weather

Palo Alto Airport of Santa Clara County
Palo Alto, California, United States

Public forecast

Using degrees Fahrenheit for public forecast. Weather courtesy of forecast.io.

Current aviation weather report (METAR) for Palo Alto Airport of Santa Clara County

Report is more than 6 hours old.

Retrieved 2019/10/15 03:47 UTC (7 hours ago):

KPAO 150347Z 32004KT 10SM SKC 13/11 A3001 RMK LAST

Closest aviation forecast (TAF) to Palo Alto Airport of Santa Clara County

Closest forecast is Norman Y. Mineta San Jose International Airport, 10.7 nm (19.7 km) ESE. Retrieved 2019/10/15 06:22 UTC (4 hours ago):

TAF KSJC 150520Z 1506/1606 VRB03KT P6SM SKC FM151200 VRB03KT P6SM SCT010 TEMPO 1513/1516 BKN010 FM151700 VRB03KT P6SM SKC FM152000 32009KT P6SM SKC FM160400 VRB03KT P6SM SKC